sensor_id;sensor_type;location;lat;lon;timestamp;P1;durP1;ratioP1;P2;durP2;ratioP2
11211;SDS011;5663;50.864;12.096;2023-03-01T00:01:12;32.23;;;18.60;;
11211;SDS011;5663;50.864;12.096;2023-03-01T00:03:44;33.13;;;19.17;;
11211;SDS011;5663;50.864;12.096;2023-03-01T00:06:12;31.67;;;19.07;;
11211;SDS011;5663;50.864;12.096;2023-03-01T00:08:41;32.00;;;18.67;;
11211;SDS011;5663;50.864;12.096;2023-03-01T00:11:10;31.73;;;19.17;;
11211;SDS011;5663;50.864;12.096;2023-03-01T00:13:40;31.17;;;18.30;;
11211;SDS011;5663;50.864;12.096;2023-03-01T00:16:11;32.67;;;19.07;;
11211;SDS011;5663;50.864;12.096;2023-03-01T00:18:40;29.90;;;19.50;;
11211;SDS011;5663;50.864;12.096;2023-03-01T00:21:08;29.70;;;18.30;;
11211;SDS011;5663;50.864;12.096;2023-03-01T00:23:37;25.57;;;15.77;;
11211;SDS011;5663;50.864;12.096;2023-03-01T00:26:05;32.63;;;19.20;;
11211;SDS011;5663;50.864;12.096;2023-03-01T00:28:34;28.10;;;15.37;;
11211;SDS011;5663;50.864;12.096;2023-03-01T00:31:08;25.97;;;16.80;;
11211;SDS011;5663;50.864;12.096;2023-03-01T00:33:37;24.20;;;15.53;;
11211;SDS011;5663;50.864;12.096;2023-03-01T00:36:05;27.53;;;16.83;;
11211;SDS011;5663;50.864;12.096;2023-03-01T00:38:34;33.57;;;18.93;;
11211;SDS011;5663;50.864;12.096;2023-03-01T00:41:03;32.10;;;18.30;;
11211;SDS011;5663;50.864;12.096;2023-03-01T00:43:32;32.37;;;17.73;;
11211;SDS011;5663;50.864;12.096;2023-03-01T00:46:02;33.50;;;19.60;;
11211;SDS011;5663;50.864;12.096;2023-03-01T00:48:32;28.60;;;18.00;;
11211;SDS011;5663;50.864;12.096;2023-03-01T00:51:04;32.23;;;18.57;;
11211;SDS011;5663;50.864;12.096;2023-03-01T00:53:33;24.73;;;15.53;;
11211;SDS011;5663;50.864;12.096;2023-03-01T00:56:01;33.70;;;19.23;;
11211;SDS011;5663;50.864;12.096;2023-03-01T00:58:28;33.73;;;19.43;;
11211;SDS011;5663;50.864;12.096;2023-03-01T01:00:57;33.43;;;19.77;;
11211;SDS011;5663;50.864;12.096;2023-03-01T01:03:25;36.40;;;19.67;;
11211;SDS011;5663;50.864;12.096;2023-03-01T01:05:54;34.23;;;19.97;;
11211;SDS011;5663;50.864;12.096;2023-03-01T01:12:13;35.50;;;19.27;;
11211;SDS011;5663;50.864;12.096;2023-03-01T01:14:41;34.63;;;19.67;;
11211;SDS011;5663;50.864;12.096;2023-03-01T01:17:08;32.93;;;19.17;;
11211;SDS011;5663;50.864;12.096;2023-03-01T01:19:37;29.17;;;16.93;;
11211;SDS011;5663;50.864;12.096;2023-03-01T01:22:07;30.67;;;18.10;;
11211;SDS011;5663;50.864;12.096;2023-03-01T01:24:34;29.93;;;17.50;;
11211;SDS011;5663;50.864;12.096;2023-03-01T01:27:02;33.13;;;19.13;;
11211;SDS011;5663;50.864;12.096;2023-03-01T01:29:30;29.60;;;17.17;;
11211;SDS011;5663;50.864;12.096;2023-03-01T01:31:59;26.57;;;17.37;;
11211;SDS011;5663;50.864;12.096;2023-03-01T01:34:27;29.43;;;17.17;;
11211;SDS011;5663;50.864;12.096;2023-03-01T01:36:55;33.40;;;19.87;;
11211;SDS011;5663;50.864;12.096;2023-03-01T01:42:53;32.70;;;19.23;;
11211;SDS011;5663;50.864;12.096;2023-03-01T01:45:26;36.17;;;19.83;;
11211;SDS011;5663;50.864;12.096;2023-03-01T01:48:00;34.97;;;18.90;;
11211;SDS011;5663;50.864;12.096;2023-03-01T01:50:33;33.30;;;19.23;;
11211;SDS011;5663;50.864;12.096;2023-03-01T01:53:07;27.23;;;17.13;;
11211;SDS011;5663;50.864;12.096;2023-03-01T01:55:39;33.70;;;19.97;;
11211;SDS011;5663;50.864;12.096;2023-03-01T01:58:12;33.10;;;19.57;;
11211;SDS011;5663;50.864;12.096;2023-03-01T02:00:45;38.30;;;19.67;;
11211;SDS011;5663;50.864;12.096;2023-03-01T02:03:17;33.23;;;19.23;;
11211;SDS011;5663;50.864;12.096;2023-03-01T02:05:47;33.33;;;19.57;;
11211;SDS011;5663;50.864;12.096;2023-03-01T02:08:22;33.80;;;19.33;;
11211;SDS011;5663;50.864;12.096;2023-03-01T02:10:53;28.57;;;17.27;;
11211;SDS011;5663;50.864;12.096;2023-03-01T02:13:24;31.17;;;18.23;;
11211;SDS011;5663;50.864;12.096;2023-03-01T02:15:52;34.07;;;19.73;;
11211;SDS011;5663;50.864;12.096;2023-03-01T02:18:20;30.67;;;18.60;;
11211;SDS011;5663;50.864;12.096;2023-03-01T02:20:54;35.87;;;20.27;;
11211;SDS011;5663;50.864;12.096;2023-03-01T02:23:36;34.57;;;19.63;;
11211;SDS011;5663;50.864;12.096;2023-03-01T02:26:06;31.70;;;18.20;;
11211;SDS011;5663;50.864;12.096;2023-03-01T02:28:39;36.97;;;19.80;;
11211;SDS011;5663;50.864;12.096;2023-03-01T02:31:10;36.30;;;20.60;;
11211;SDS011;5663;50.864;12.096;2023-03-01T02:33:58;38.07;;;20.20;;
11211;SDS011;5663;50.864;12.096;2023-03-01T02:36:31;36.83;;;21.07;;
11211;SDS011;5663;50.864;12.096;2023-03-01T02:39:03;29.10;;;17.67;;
11211;SDS011;5663;50.864;12.096;2023-03-01T02:41:34;32.97;;;18.13;;
11211;SDS011;5663;50.864;12.096;2023-03-01T02:44:05;33.17;;;19.40;;
11211;SDS011;5663;50.864;12.096;2023-03-01T02:46:41;33.00;;;19.00;;
11211;SDS011;5663;50.864;12.096;2023-03-01T02:49:19;33.70;;;20.03;;
11211;SDS011;5663;50.864;12.096;2023-03-01T02:51:52;33.57;;;20.03;;
11211;SDS011;5663;50.864;12.096;2023-03-01T02:54:33;34.70;;;19.30;;
11211;SDS011;5663;50.864;12.096;2023-03-01T02:57:07;32.83;;;20.30;;
11211;SDS011;5663;50.864;12.096;2023-03-01T02:59:36;34.30;;;20.37;;
11211;SDS011;5663;50.864;12.096;2023-03-01T03:02:06;36.43;;;19.87;;
11211;SDS011;5663;50.864;12.096;2023-03-01T03:04:34;30.87;;;18.27;;
11211;SDS011;5663;50.864;12.096;2023-03-01T03:07:02;37.30;;;19.30;;
11211;SDS011;5663;50.864;12.096;2023-03-01T03:09:30;35.10;;;19.70;;
11211;SDS011;5663;50.864;12.096;2023-03-01T03:11:57;26.43;;;15.67;;
11211;SDS011;5663;50.864;12.096;2023-03-01T03:14:25;34.30;;;19.00;;
11211;SDS011;5663;50.864;12.096;2023-03-01T03:16:57;33.53;;;19.37;;
11211;SDS011;5663;50.864;12.096;2023-03-01T03:19:24;32.70;;;19.13;;
11211;SDS011;5663;50.864;12.096;2023-03-01T03:21:52;32.63;;;18.93;;
11211;SDS011;5663;50.864;12.096;2023-03-01T03:24:20;33.73;;;19.57;;
11211;SDS011;5663;50.864;12.096;2023-03-01T03:26:49;34.63;;;19.37;;
11211;SDS011;5663;50.864;12.096;2023-03-01T03:29:17;36.07;;;19.60;;
11211;SDS011;5663;50.864;12.096;2023-03-01T03:31:47;37.07;;;21.07;;
11211;SDS011;5663;50.864;12.096;2023-03-01T03:34:16;32.57;;;18.10;;
11211;SDS011;5663;50.864;12.096;2023-03-01T03:36:44;33.70;;;19.30;;
11211;SDS011;5663;50.864;12.096;2023-03-01T03:39:12;32.90;;;18.67;;
11211;SDS011;5663;50.864;12.096;2023-03-01T03:41:40;32.50;;;18.57;;
11211;SDS011;5663;50.864;12.096;2023-03-01T03:44:07;32.10;;;17.57;;
11211;SDS011;5663;50.864;12.096;2023-03-01T03:46:35;37.10;;;20.57;;
11211;SDS011;5663;50.864;12.096;2023-03-01T03:49:03;36.47;;;19.90;;
11211;SDS011;5663;50.864;12.096;2023-03-01T03:51:32;40.30;;;22.93;;
11211;SDS011;5663;50.864;12.096;2023-03-01T03:54:00;40.90;;;24.10;;
11211;SDS011;5663;50.864;12.096;2023-03-01T03:56:28;43.10;;;21.87;;
11211;SDS011;5663;50.864;12.096;2023-03-01T03:58:56;39.63;;;20.90;;
11211;SDS011;5663;50.864;12.096;2023-03-01T04:01:25;38.70;;;21.77;;
11211;SDS011;5663;50.864;12.096;2023-03-01T04:03:52;33.00;;;20.03;;
11211;SDS011;5663;50.864;12.096;2023-03-01T04:06:22;32.27;;;18.87;;
11211;SDS011;5663;50.864;12.096;2023-03-01T04:08:51;33.53;;;19.33;;
11211;SDS011;5663;50.864;12.096;2023-03-01T04:11:24;33.63;;;19.70;;
11211;SDS011;5663;50.864;12.096;2023-03-01T04:13:56;33.90;;;19.70;;
11211;SDS011;5663;50.864;12.096;2023-03-01T04:16:26;34.27;;;20.93;;
11211;SDS011;5663;50.864;12.096;2023-03-01T04:18:54;40.00;;;21.17;;
11211;SDS011;5663;50.864;12.096;2023-03-01T04:21:25;31.30;;;18.43;;
11211;SDS011;5663;50.864;12.096;2023-03-01T04:23:54;34.33;;;18.93;;
11211;SDS011;5663;50.864;12.096;2023-03-01T04:26:22;34.60;;;19.63;;
11211;SDS011;5663;50.864;12.096;2023-03-01T04:28:50;34.67;;;20.67;;
11211;SDS011;5663;50.864;12.096;2023-03-01T04:31:18;37.33;;;19.70;;
11211;SDS011;5663;50.864;12.096;2023-03-01T04:33:48;38.13;;;20.40;;
11211;SDS011;5663;50.864;12.096;2023-03-01T04:36:18;39.20;;;21.03;;
11211;SDS011;5663;50.864;12.096;2023-03-01T04:38:48;34.87;;;20.23;;
11211;SDS011;5663;50.864;12.096;2023-03-01T04:41:18;30.63;;;18.77;;
11211;SDS011;5663;50.864;12.096;2023-03-01T04:43:47;34.13;;;19.70;;
11211;SDS011;5663;50.864;12.096;2023-03-01T04:46:17;32.17;;;18.23;;
11211;SDS011;5663;50.864;12.096;2023-03-01T04:48:45;35.53;;;20.20;;
11211;SDS011;5663;50.864;12.096;2023-03-01T04:51:14;31.43;;;20.03;;
11211;SDS011;5663;50.864;12.096;2023-03-01T04:53:42;39.90;;;22.33;;
11211;SDS011;5663;50.864;12.096;2023-03-01T04:56:12;32.37;;;17.37;;
11211;SDS011;5663;50.864;12.096;2023-03-01T04:58:41;33.87;;;20.77;;
11211;SDS011;5663;50.864;12.096;2023-03-01T05:01:10;34.33;;;19.50;;
11211;SDS011;5663;50.864;12.096;2023-03-01T05:03:41;35.80;;;20.67;;
11211;SDS011;5663;50.864;12.096;2023-03-01T05:06:09;37.67;;;20.23;;
11211;SDS011;5663;50.864;12.096;2023-03-01T05:08:38;34.03;;;20.17;;
11211;SDS011;5663;50.864;12.096;2023-03-01T05:11:07;33.43;;;19.90;;
11211;SDS011;5663;50.864;12.096;2023-03-01T05:13:36;34.47;;;20.50;;
11211;SDS011;5663;50.864;12.096;2023-03-01T05:16:06;35.13;;;19.30;;
11211;SDS011;5663;50.864;12.096;2023-03-01T05:18:38;36.27;;;20.40;;
11211;SDS011;5663;50.864;12.096;2023-03-01T05:21:09;37.03;;;21.50;;
11211;SDS011;5663;50.864;12.096;2023-03-01T05:23:38;41.93;;;21.77;;
11211;SDS011;5663;50.864;12.096;2023-03-01T05:26:06;36.97;;;19.93;;
11211;SDS011;5663;50.864;12.096;2023-03-01T05:28:36;34.67;;;19.80;;
11211;SDS011;5663;50.864;12.096;2023-03-01T05:31:05;36.07;;;19.83;;
11211;SDS011;5663;50.864;12.096;2023-03-01T05:33:35;35.30;;;20.00;;
11211;SDS011;5663;50.864;12.096;2023-03-01T05:36:05;25.07;;;14.77;;
11211;SDS011;5663;50.864;12.096;2023-03-01T05:38:33;35.00;;;20.67;;
11211;SDS011;5663;50.864;12.096;2023-03-01T05:41:02;36.23;;;20.20;;
11211;SDS011;5663;50.864;12.096;2023-03-01T05:43:30;31.23;;;17.90;;
11211;SDS011;5663;50.864;12.096;2023-03-01T05:45:59;35.57;;;21.73;;
11211;SDS011;5663;50.864;12.096;2023-03-01T05:48:29;34.77;;;20.47;;
11211;SDS011;5663;50.864;12.096;2023-03-01T05:50:58;38.57;;;20.57;;
11211;SDS011;5663;50.864;12.096;2023-03-01T05:53:27;33.53;;;19.20;;
11211;SDS011;5663;50.864;12.096;2023-03-01T05:55:55;36.17;;;19.40;;
11211;SDS011;5663;50.864;12.096;2023-03-01T05:58:22;35.10;;;20.73;;
11211;SDS011;5663;50.864;12.096;2023-03-01T06:00:50;36.27;;;19.17;;
11211;SDS011;5663;50.864;12.096;2023-03-01T06:03:18;33.10;;;18.63;;
11211;SDS011;5663;50.864;12.096;2023-03-01T06:05:47;35.90;;;20.87;;
11211;SDS011;5663;50.864;12.096;2023-03-01T06:08:15;37.80;;;19.63;;
11211;SDS011;5663;50.864;12.096;2023-03-01T06:10:43;32.00;;;19.00;;
11211;SDS011;5663;50.864;12.096;2023-03-01T06:13:10;40.50;;;22.23;;
11211;SDS011;5663;50.864;12.096;2023-03-01T06:15:38;36.17;;;20.83;;
11211;SDS011;5663;50.864;12.096;2023-03-01T06:18:06;32.90;;;18.47;;
11211;SDS011;5663;50.864;12.096;2023-03-01T06:20:34;37.50;;;21.17;;
11211;SDS011;5663;50.864;12.096;2023-03-01T06:23:03;33.83;;;20.27;;
11211;SDS011;5663;50.864;12.096;2023-03-01T06:25:31;36.70;;;20.30;;
11211;SDS011;5663;50.864;12.096;2023-03-01T06:27:59;36.83;;;20.30;;
11211;SDS011;5663;50.864;12.096;2023-03-01T06:30:27;35.50;;;19.73;;
11211;SDS011;5663;50.864;12.096;2023-03-01T06:32:55;36.47;;;20.43;;
11211;SDS011;5663;50.864;12.096;2023-03-01T06:35:26;38.97;;;21.53;;
11211;SDS011;5663;50.864;12.096;2023-03-01T06:37:57;30.40;;;18.67;;
11211;SDS011;5663;50.864;12.096;2023-03-01T06:40:28;35.43;;;21.67;;
11211;SDS011;5663;50.864;12.096;2023-03-01T06:42:56;32.47;;;19.07;;
11211;SDS011;5663;50.864;12.096;2023-03-01T06:45:25;35.40;;;20.20;;
11211;SDS011;5663;50.864;12.096;2023-03-01T06:47:57;39.37;;;21.97;;
11211;SDS011;5663;50.864;12.096;2023-03-01T06:50:30;37.50;;;19.77;;
11211;SDS011;5663;50.864;12.096;2023-03-01T06:52:58;32.43;;;18.57;;
11211;SDS011;5663;50.864;12.096;2023-03-01T06:55:27;35.83;;;20.37;;
11211;SDS011;5663;50.864;12.096;2023-03-01T06:57:55;41.03;;;22.47;;
11211;SDS011;5663;50.864;12.096;2023-03-01T07:00:24;29.03;;;17.33;;
11211;SDS011;5663;50.864;12.096;2023-03-01T07:02:52;37.53;;;21.47;;
11211;SDS011;5663;50.864;12.096;2023-03-01T07:05:20;35.37;;;19.93;;
11211;SDS011;5663;50.864;12.096;2023-03-01T07:07:48;38.23;;;22.30;;
11211;SDS011;5663;50.864;12.096;2023-03-01T07:10:16;32.57;;;18.83;;
11211;SDS011;5663;50.864;12.096;2023-03-01T07:12:45;39.77;;;21.97;;
11211;SDS011;5663;50.864;12.096;2023-03-01T07:15:14;37.00;;;22.00;;
11211;SDS011;5663;50.864;12.096;2023-03-01T07:17:43;43.40;;;23.07;;
11211;SDS011;5663;50.864;12.096;2023-03-01T07:20:13;36.10;;;21.00;;
11211;SDS011;5663;50.864;12.096;2023-03-01T07:22:41;36.17;;;21.07;;
11211;SDS011;5663;50.864;12.096;2023-03-01T07:25:10;40.00;;;22.37;;
11211;SDS011;5663;50.864;12.096;2023-03-01T07:27:38;40.97;;;21.87;;
11211;SDS011;5663;50.864;12.096;2023-03-01T07:30:08;39.90;;;23.87;;
11211;SDS011;5663;50.864;12.096;2023-03-01T07:32:36;38.93;;;21.93;;
11211;SDS011;5663;50.864;12.096;2023-03-01T07:35:04;46.90;;;24.60;;
11211;SDS011;5663;50.864;12.096;2023-03-01T07:37:33;50.10;;;25.07;;
11211;SDS011;5663;50.864;12.096;2023-03-01T07:40:01;55.13;;;26.83;;
11211;SDS011;5663;50.864;12.096;2023-03-01T07:42:29;41.50;;;23.07;;
11211;SDS011;5663;50.864;12.096;2023-03-01T07:44:57;54.77;;;28.10;;
11211;SDS011;5663;50.864;12.096;2023-03-01T07:47:26;48.33;;;28.10;;
11211;SDS011;5663;50.864;12.096;2023-03-01T07:49:54;51.50;;;26.47;;
11211;SDS011;5663;50.864;12.096;2023-03-01T07:52:22;46.37;;;26.10;;
11211;SDS011;5663;50.864;12.096;2023-03-01T07:54:52;50.97;;;28.40;;
11211;SDS011;5663;50.864;12.096;2023-03-01T07:57:20;45.37;;;25.57;;
11211;SDS011;5663;50.864;12.096;2023-03-01T07:59:48;41.83;;;25.80;;
11211;SDS011;5663;50.864;12.096;2023-03-01T08:02:16;50.23;;;29.00;;
11211;SDS011;5663;50.864;12.096;2023-03-01T08:04:45;53.50;;;26.97;;
11211;SDS011;5663;50.864;12.096;2023-03-01T08:07:13;49.50;;;28.27;;
11211;SDS011;5663;50.864;12.096;2023-03-01T08:09:41;40.27;;;24.63;;
11211;SDS011;5663;50.864;12.096;2023-03-01T08:12:08;39.13;;;23.93;;
11211;SDS011;5663;50.864;12.096;2023-03-01T08:14:36;41.47;;;24.43;;
11211;SDS011;5663;50.864;12.096;2023-03-01T08:17:04;56.03;;;29.17;;
11211;SDS011;5663;50.864;12.096;2023-03-01T08:19:33;54.07;;;28.03;;
11211;SDS011;5663;50.864;12.096;2023-03-01T08:22:02;49.97;;;29.27;;
11211;SDS011;5663;50.864;12.096;2023-03-01T08:24:30;48.33;;;26.83;;
11211;SDS011;5663;50.864;12.096;2023-03-01T08:26:57;52.83;;;29.57;;
11211;SDS011;5663;50.864;12.096;2023-03-01T08:29:25;45.13;;;27.57;;
11211;SDS011;5663;50.864;12.096;2023-03-01T08:31:54;51.57;;;29.23;;
11211;SDS011;5663;50.864;12.096;2023-03-01T08:34:22;47.60;;;27.83;;
11211;SDS011;5663;50.864;12.096;2023-03-01T08:36:51;46.73;;;27.07;;
11211;SDS011;5663;50.864;12.096;2023-03-01T08:39:20;45.27;;;26.13;;
11211;SDS011;5663;50.864;12.096;2023-03-01T08:41:50;48.23;;;26.73;;
11211;SDS011;5663;50.864;12.096;2023-03-01T08:44:18;47.13;;;27.13;;
11211;SDS011;5663;50.864;12.096;2023-03-01T08:46:52;44.77;;;26.43;;
11211;SDS011;5663;50.864;12.096;2023-03-01T08:49:21;42.30;;;26.37;;
11211;SDS011;5663;50.864;12.096;2023-03-01T08:51:49;47.37;;;26.07;;
11211;SDS011;5663;50.864;12.096;2023-03-01T08:54:18;40.47;;;24.77;;
11211;SDS011;5663;50.864;12.096;2023-03-01T08:56:48;44.27;;;24.93;;
11211;SDS011;5663;50.864;12.096;2023-03-01T08:59:17;40.97;;;24.60;;
11211;SDS011;5663;50.864;12.096;2023-03-01T09:01:45;42.07;;;24.17;;
11211;SDS011;5663;50.864;12.096;2023-03-01T09:04:14;37.83;;;23.57;;
11211;SDS011;5663;50.864;12.096;2023-03-01T09:06:42;41.73;;;24.97;;
11211;SDS011;5663;50.864;12.096;2023-03-01T09:09:12;43.80;;;23.83;;
11211;SDS011;5663;50.864;12.096;2023-03-01T09:11:45;40.17;;;24.00;;
11211;SDS011;5663;50.864;12.096;2023-03-01T09:14:15;39.20;;;23.17;;
11211;SDS011;5663;50.864;12.096;2023-03-01T09:16:43;42.50;;;24.33;;
11211;SDS011;5663;50.864;12.096;2023-03-01T09:19:11;39.93;;;23.53;;
11211;SDS011;5663;50.864;12.096;2023-03-01T09:21:39;38.03;;;22.37;;
11211;SDS011;5663;50.864;12.096;2023-03-01T09:24:11;39.57;;;22.87;;
11211;SDS011;5663;50.864;12.096;2023-03-01T09:26:40;33.97;;;21.00;;
11211;SDS011;5663;50.864;12.096;2023-03-01T09:29:10;36.17;;;21.63;;
11211;SDS011;5663;50.864;12.096;2023-03-01T09:31:39;35.97;;;22.23;;
11211;SDS011;5663;50.864;12.096;2023-03-01T09:34:07;32.63;;;20.97;;
11211;SDS011;5663;50.864;12.096;2023-03-01T09:36:35;32.17;;;20.20;;
11211;SDS011;5663;50.864;12.096;2023-03-01T09:39:03;32.27;;;20.40;;
11211;SDS011;5663;50.864;12.096;2023-03-01T09:41:36;35.97;;;21.67;;
11211;SDS011;5663;50.864;12.096;2023-03-01T09:44:13;34.53;;;21.07;;
11211;SDS011;5663;50.864;12.096;2023-03-01T09:46:51;33.60;;;21.10;;
11211;SDS011;5663;50.864;12.096;2023-03-01T09:49:23;36.97;;;21.10;;
11211;SDS011;5663;50.864;12.096;2023-03-01T09:51:56;35.97;;;20.90;;
11211;SDS011;5663;50.864;12.096;2023-03-01T09:54:27;34.60;;;21.07;;
11211;SDS011;5663;50.864;12.096;2023-03-01T09:57:05;32.90;;;20.10;;
11211;SDS011;5663;50.864;12.096;2023-03-01T09:59:44;38.40;;;21.47;;
11211;SDS011;5663;50.864;12.096;2023-03-01T10:02:23;33.33;;;20.53;;
11211;SDS011;5663;50.864;12.096;2023-03-01T10:04:59;34.57;;;20.93;;
11211;SDS011;5663;50.864;12.096;2023-03-01T10:07:39;33.73;;;20.90;;
11211;SDS011;5663;50.864;12.096;2023-03-01T10:10:18;33.37;;;21.53;;
11211;SDS011;5663;50.864;12.096;2023-03-01T10:12:53;37.23;;;22.23;;
11211;SDS011;5663;50.864;12.096;2023-03-01T10:15:28;31.60;;;20.50;;
11211;SDS011;5663;50.864;12.096;2023-03-01T10:18:01;35.17;;;21.30;;
11211;SDS011;5663;50.864;12.096;2023-03-01T10:20:37;36.80;;;22.70;;
11211;SDS011;5663;50.864;12.096;2023-03-01T10:23:13;36.43;;;22.27;;
11211;SDS011;5663;50.864;12.096;2023-03-01T10:25:44;31.40;;;20.83;;
11211;SDS011;5663;50.864;12.096;2023-03-01T10:28:20;34.20;;;21.63;;
11211;SDS011;5663;50.864;12.096;2023-03-01T10:30:59;34.77;;;21.87;;
11211;SDS011;5663;50.864;12.096;2023-03-01T10:33:27;31.30;;;20.90;;
11211;SDS011;5663;50.864;12.096;2023-03-01T10:35:58;34.57;;;20.87;;
11211;SDS011;5663;50.864;12.096;2023-03-01T10:38:26;32.00;;;22.00;;
11211;SDS011;5663;50.864;12.096;2023-03-01T10:40:57;36.53;;;23.00;;
11211;SDS011;5663;50.864;12.096;2023-03-01T10:43:29;38.57;;;22.17;;
11211;SDS011;5663;50.864;12.096;2023-03-01T10:46:16;40.30;;;21.00;;
11211;SDS011;5663;50.864;12.096;2023-03-01T10:49:04;35.03;;;21.67;;
11211;SDS011;5663;50.864;12.096;2023-03-01T10:51:34;32.33;;;20.83;;
11211;SDS011;5663;50.864;12.096;2023-03-01T10:54:02;29.93;;;20.13;;
11211;SDS011;5663;50.864;12.096;2023-03-01T10:56:45;32.23;;;20.23;;
11211;SDS011;5663;50.864;12.096;2023-03-01T10:59:20;35.37;;;21.13;;
11211;SDS011;5663;50.864;12.096;2023-03-01T11:04:57;29.63;;;20.00;;
11211;SDS011;5663;50.864;12.096;2023-03-01T11:07:27;31.00;;;20.57;;
11211;SDS011;5663;50.864;12.096;2023-03-01T11:09:58;44.37;;;20.27;;
11211;SDS011;5663;50.864;12.096;2023-03-01T11:12:26;29.50;;;20.13;;
11211;SDS011;5663;50.864;12.096;2023-03-01T11:14:55;29.30;;;19.63;;
11211;SDS011;5663;50.864;12.096;2023-03-01T11:17:27;30.00;;;19.60;;
11211;SDS011;5663;50.864;12.096;2023-03-01T11:20:00;31.50;;;20.40;;
11211;SDS011;5663;50.864;12.096;2023-03-01T11:22:30;28.37;;;19.20;;
11211;SDS011;5663;50.864;12.096;2023-03-01T11:25:03;28.63;;;19.90;;
11211;SDS011;5663;50.864;12.096;2023-03-01T11:27:34;27.93;;;18.27;;
11211;SDS011;5663;50.864;12.096;2023-03-01T11:30:07;28.73;;;19.10;;
11211;SDS011;5663;50.864;12.096;2023-03-01T11:32:45;30.93;;;20.50;;
11211;SDS011;5663;50.864;12.096;2023-03-01T11:35:22;25.00;;;18.83;;
11211;SDS011;5663;50.864;12.096;2023-03-01T11:37:56;32.00;;;18.50;;
11211;SDS011;5663;50.864;12.096;2023-03-01T11:40:32;28.80;;;19.17;;
11211;SDS011;5663;50.864;12.096;2023-03-01T11:43:05;26.20;;;18.13;;
11211;SDS011;5663;50.864;12.096;2023-03-01T11:45:42;27.73;;;18.43;;
11211;SDS011;5663;50.864;12.096;2023-03-01T11:48:33;27.07;;;17.90;;
11211;SDS011;5663;50.864;12.096;2023-03-01T11:51:12;28.20;;;19.57;;
11211;SDS011;5663;50.864;12.096;2023-03-01T11:53:53;27.33;;;18.70;;
11211;SDS011;5663;50.864;12.096;2023-03-01T11:56:34;29.73;;;17.97;;
11211;SDS011;5663;50.864;12.096;2023-03-01T11:59:16;27.03;;;18.07;;
11211;SDS011;5663;50.864;12.096;2023-03-01T12:01:59;25.40;;;17.27;;
11211;SDS011;5663;50.864;12.096;2023-03-01T12:04:51;26.47;;;18.27;;
11211;SDS011;5663;50.864;12.096;2023-03-01T12:07:30;26.03;;;17.93;;
11211;SDS011;5663;50.864;12.096;2023-03-01T12:16:20;25.67;;;17.47;;
11211;SDS011;5663;50.864;12.096;2023-03-01T12:19:02;24.63;;;17.50;;
11211;SDS011;5663;50.864;12.096;2023-03-01T12:21:44;26.90;;;18.17;;
11211;SDS011;5663;50.864;12.096;2023-03-01T12:24:37;26.57;;;17.47;;
11211;SDS011;5663;50.864;12.096;2023-03-01T12:27:43;24.27;;;17.30;;
11211;SDS011;5663;50.864;12.096;2023-03-01T12:30:29;25.73;;;17.13;;
11211;SDS011;5663;50.864;12.096;2023-03-01T12:33:09;23.13;;;15.97;;
11211;SDS011;5663;50.864;12.096;2023-03-01T12:35:52;26.80;;;17.60;;
11211;SDS011;5663;50.864;12.096;2023-03-01T12:38:36;25.33;;;16.97;;
11211;SDS011;5663;50.864;12.096;2023-03-01T12:44:09;25.37;;;16.77;;
11211;SDS011;5663;50.864;12.096;2023-03-01T12:46:49;23.47;;;17.20;;
11211;SDS011;5663;50.864;12.096;2023-03-01T12:49:24;24.43;;;17.77;;
11211;SDS011;5663;50.864;12.096;2023-03-01T12:51:59;27.53;;;18.20;;
11211;SDS011;5663;50.864;12.096;2023-03-01T12:54:31;24.63;;;16.93;;
11211;SDS011;5663;50.864;12.096;2023-03-01T12:57:06;25.33;;;16.90;;
11211;SDS011;5663;50.864;12.096;2023-03-01T12:59:42;26.00;;;17.70;;
11211;SDS011;5663;50.864;12.096;2023-03-01T13:02:19;23.37;;;17.10;;
11211;SDS011;5663;50.864;12.096;2023-03-01T13:04:57;23.80;;;16.50;;
11211;SDS011;5663;50.864;12.096;2023-03-01T13:07:36;22.57;;;16.00;;
11211;SDS011;5663;50.864;12.096;2023-03-01T13:10:17;21.27;;;16.17;;
11211;SDS011;5663;50.864;12.096;2023-03-01T13:12:56;23.80;;;16.17;;
11211;SDS011;5663;50.864;12.096;2023-03-01T13:15:31;24.07;;;16.03;;
11211;SDS011;5663;50.864;12.096;2023-03-01T13:18:01;20.87;;;15.50;;
11211;SDS011;5663;50.864;12.096;2023-03-01T13:20:32;21.57;;;15.23;;
11211;SDS011;5663;50.864;12.096;2023-03-01T13:23:03;21.40;;;15.57;;
11211;SDS011;5663;50.864;12.096;2023-03-01T13:25:35;29.60;;;15.67;;
11211;SDS011;5663;50.864;12.096;2023-03-01T13:34:43;25.87;;;17.03;;
11211;SDS011;5663;50.864;12.096;2023-03-01T13:37:28;23.13;;;15.73;;
11211;SDS011;5663;50.864;12.096;2023-03-01T13:40:03;19.93;;;15.27;;
11211;SDS011;5663;50.864;12.096;2023-03-01T13:42:55;22.73;;;15.80;;
11211;SDS011;5663;50.864;12.096;2023-03-01T13:45:25;22.03;;;15.40;;
11211;SDS011;5663;50.864;12.096;2023-03-01T13:48:03;21.33;;;15.43;;
11211;SDS011;5663;50.864;12.096;2023-03-01T13:50:38;21.57;;;15.57;;
11211;SDS011;5663;50.864;12.096;2023-03-01T13:53:14;21.77;;;15.40;;
11211;SDS011;5663;50.864;12.096;2023-03-01T13:55:46;22.30;;;15.67;;
11211;SDS011;5663;50.864;12.096;2023-03-01T13:58:21;22.43;;;15.67;;
11211;SDS011;5663;50.864;12.096;2023-03-01T14:00:55;22.17;;;15.07;;
11211;SDS011;5663;50.864;12.096;2023-03-01T14:03:24;21.23;;;15.43;;
11211;SDS011;5663;50.864;12.096;2023-03-01T14:06:01;21.13;;;14.97;;
11211;SDS011;5663;50.864;12.096;2023-03-01T14:08:36;21.10;;;15.93;;
11211;SDS011;5663;50.864;12.096;2023-03-01T14:14:04;22.57;;;16.27;;
11211;SDS011;5663;50.864;12.096;2023-03-01T14:17:02;24.07;;;16.33;;
11211;SDS011;5663;50.864;12.096;2023-03-01T14:19:48;27.43;;;17.03;;
11211;SDS011;5663;50.864;12.096;2023-03-01T18:12:15;18.07;;;11.03;;
11211;SDS011;5663;50.864;12.096;2023-03-01T18:14:42;20.47;;;11.67;;
11211;SDS011;5663;50.864;12.096;2023-03-01T18:17:09;18.83;;;11.50;;
11211;SDS011;5663;50.864;12.096;2023-03-01T18:19:38;18.10;;;11.07;;
11211;SDS011;5663;50.864;12.096;2023-03-01T18:22:07;18.23;;;11.23;;
11211;SDS011;5663;50.864;12.096;2023-03-01T18:24:36;17.73;;;11.10;;
11211;SDS011;5663;50.864;12.096;2023-03-01T18:27:04;17.47;;;11.50;;
11211;SDS011;5663;50.864;12.096;2023-03-01T18:29:34;15.03;;;9.83;;
11211;SDS011;5663;50.864;12.096;2023-03-01T18:32:03;19.97;;;12.43;;
11211;SDS011;5663;50.864;12.096;2023-03-01T18:34:32;19.97;;;12.03;;
11211;SDS011;5663;50.864;12.096;2023-03-01T18:37:00;16.47;;;10.47;;
11211;SDS011;5663;50.864;12.096;2023-03-01T18:39:28;19.87;;;12.20;;
11211;SDS011;5663;50.864;12.096;2023-03-01T18:41:56;16.83;;;11.00;;
11211;SDS011;5663;50.864;12.096;2023-03-01T18:44:24;15.93;;;10.43;;
11211;SDS011;5663;50.864;12.096;2023-03-01T18:46:54;19.07;;;11.73;;
11211;SDS011;5663;50.864;12.096;2023-03-01T18:49:23;18.00;;;11.30;;
11211;SDS011;5663;50.864;12.096;2023-03-01T18:51:51;15.67;;;9.93;;
11211;SDS011;5663;50.864;12.096;2023-03-01T18:54:22;17.90;;;11.53;;
11211;SDS011;5663;50.864;12.096;2023-03-01T18:56:49;16.53;;;9.67;;
11211;SDS011;5663;50.864;12.096;2023-03-01T18:59:17;19.77;;;11.60;;
11211;SDS011;5663;50.864;12.096;2023-03-01T19:01:45;20.83;;;12.97;;
11211;SDS011;5663;50.864;12.096;2023-03-01T19:04:14;18.30;;;11.83;;